サンサルバドル の空港の天気 - METARとTAF

エルサルバドル国際空港 ( MSLP / SAL ) - エルサルバドル サンサルバドル
飛行場実況気象(Metar)
観測時間11/15 10:24 CST (11/15 16:24 UTC)
風向・風速北北東 9m/s 瞬間風速16m/s
視程10km以上
天気現象
なし
気温31℃
湿度43%
気圧1012hPa
METARMSLP 151624Z 02018G31KT 340V060 CAVOK 31/17 Q1012 NOSIG
過去の天気等 Google飛行場航空写真 Wunderground天気予報

過去48時間のMETAR

飛行場予報(TAF)
発表時間: 11/15 03:25 CST (11/15 09:25 UTC)
予報対象時間: 15日6時 CST ~ 16日6時 CST
風向・風速北北東 8m/s 瞬間風速 15m/s
視程10km以上
少しの雲 雲底高度 1310m
TAF MSLP 150925Z 1512/1612 02015G30KT 9999 FEW043 TX34/1518Z TN25/1612Z